createdAt,value
2022-09-11T00:01:33.601Z,53.90
2022-09-11T00:04:00.402Z,54.10
2022-09-11T00:06:30.147Z,53.50
2022-09-11T00:09:02.214Z,53.90
2022-09-11T00:11:36.259Z,54.20
2022-09-11T00:14:17.906Z,54.10
2022-09-11T00:16:49.128Z,54.30
2022-09-11T00:20:07.550Z,54.10
2022-09-11T00:22:36.264Z,54.30
2022-09-11T00:25:03.049Z,54.30
2022-09-11T00:27:30.262Z,53.60
2022-09-11T00:29:56.962Z,53.60
2022-09-11T00:32:27.692Z,53.90
2022-09-11T00:34:55.627Z,53.80
2022-09-11T00:37:49.149Z,53.90
2022-09-11T00:40:20.387Z,54.40
2022-09-11T00:42:55.369Z,54.00
2022-09-11T00:45:26.643Z,54.20
2022-09-11T00:47:54.403Z,54.30
2022-09-11T00:50:23.357Z,53.70
2022-09-11T00:52:56.985Z,54.30
2022-09-11T00:55:35.576Z,54.50
2022-09-11T00:58:05.196Z,54.20
2022-09-11T01:00:32.023Z,54.50
2022-09-11T01:02:59.264Z,54.10
2022-09-11T01:05:28.125Z,54.20
2022-09-11T01:07:55.188Z,54.00
2022-09-11T01:10:53.181Z,54.10
2022-09-11T01:13:51.566Z,54.60
2022-09-11T01:16:21.955Z,54.60
2022-09-11T01:19:29.951Z,53.90
2022-09-11T01:22:24.066Z,54.60
2022-09-11T01:25:43.027Z,54.60
2022-09-11T01:28:34.622Z,54.60
2022-09-11T01:31:23.723Z,54.50
2022-09-11T01:34:25.646Z,54.70
2022-09-11T01:36:57.669Z,54.70
2022-09-11T01:39:28.899Z,54.30
2022-09-11T01:42:17.187Z,54.40
2022-09-11T01:45:00.194Z,54.60
2022-09-11T01:47:30.866Z,53.80
2022-09-11T01:50:06.570Z,53.60
2022-09-11T01:52:51.637Z,54.80
2022-09-11T01:55:44.911Z,55.10
2022-09-11T01:58:24.475Z,54.80
2022-09-11T02:00:54.232Z,55.10
2022-09-11T02:03:36.430Z,55.00
2022-09-11T02:06:12.780Z,55.00
2022-09-11T02:09:21.963Z,55.00
2022-09-11T02:12:08.382Z,55.10
2022-09-11T02:21:05.013Z,55.00
2022-09-11T02:23:34.767Z,54.50
2022-09-11T02:26:02.767Z,54.80
2022-09-11T02:28:32.267Z,54.80
2022-09-11T02:30:59.068Z,55.20
2022-09-11T02:33:30.733Z,54.50
2022-09-11T02:36:23.796Z,55.30
2022-09-11T02:39:27.049Z,55.30
2022-09-11T02:42:07.223Z,55.10
2022-09-11T02:44:41.804Z,54.90
2022-09-11T02:47:25.944Z,55.30
2022-09-11T02:50:05.455Z,55.40
2022-09-11T02:56:23.735Z,55.30
2022-09-11T02:59:07.524Z,55.20
2022-09-11T03:02:06.533Z,55.10
2022-09-11T03:04:38.473Z,54.10
2022-09-11T03:07:05.637Z,54.80
2022-09-11T03:09:35.024Z,54.60
2022-09-11T03:12:03.786Z,54.70
2022-09-11T03:14:31.310Z,54.80
2022-09-11T03:16:58.759Z,54.90
2022-09-11T03:19:25.527Z,54.40
2022-09-11T03:21:52.208Z,54.70
2022-09-11T03:24:19.051Z,54.80
2022-09-11T03:26:45.923Z,54.30
2022-09-11T03:29:12.660Z,54.80
2022-09-11T03:31:39.633Z,54.50
2022-09-11T03:34:06.663Z,54.70
2022-09-11T03:36:34.425Z,54.80
2022-09-11T03:39:01.704Z,55.00
2022-09-11T03:41:29.803Z,54.20
2022-09-11T03:43:56.608Z,54.50
2022-09-11T03:46:24.384Z,54.80
2022-09-11T03:48:52.672Z,55.30
2022-09-11T03:51:22.636Z,55.30
2022-09-11T03:53:49.569Z,55.00
2022-09-11T03:56:16.786Z,55.30
2022-09-11T03:58:43.498Z,55.00
2022-09-11T04:01:12.602Z,55.40
2022-09-11T04:03:47.509Z,55.60
2022-09-11T04:06:14.299Z,55.90
2022-09-11T04:08:41.417Z,55.10
2022-09-11T04:11:23.654Z,55.40
2022-09-11T04:13:51.281Z,55.10
2022-09-11T04:16:19.159Z,55.70
2022-09-11T04:18:46.494Z,56.60
2022-09-11T04:21:15.010Z,55.80
2022-09-11T04:23:41.911Z,55.70
2022-09-11T04:26:19.195Z,55.20
2022-09-11T04:28:45.872Z,55.80
2022-09-11T04:31:12.988Z,55.30
2022-09-11T04:33:39.794Z,55.10
2022-09-11T04:36:11.382Z,55.40
2022-09-11T04:38:38.330Z,56.10
2022-09-11T04:41:06.481Z,54.90
2022-09-11T04:43:39.748Z,55.50
2022-09-11T04:46:14.692Z,56.60
2022-09-11T04:48:45.742Z,56.20
2022-09-11T04:51:12.558Z,56.10
2022-09-11T04:53:39.615Z,55.90
2022-09-11T04:56:10.479Z,55.90
2022-09-11T04:58:37.300Z,56.50
2022-09-11T05:01:11.565Z,56.30
2022-09-11T05:03:40.837Z,56.50
2022-09-11T05:06:27.798Z,55.60
2022-09-11T05:09:40.114Z,56.50
2022-09-11T05:13:05.365Z,56.50
2022-09-11T05:15:54.676Z,56.40
2022-09-11T05:21:37.014Z,56.80
2022-09-11T05:24:31.020Z,56.60
2022-09-11T05:27:32.999Z,56.90
2022-09-11T05:30:27.428Z,56.40
2022-09-11T05:33:15.965Z,56.80
2022-09-11T05:36:28.838Z,56.90
2022-09-11T05:39:14.466Z,57.60
2022-09-11T05:41:41.620Z,56.70
2022-09-11T05:44:08.354Z,56.90
2022-09-11T05:46:40.062Z,56.90
2022-09-11T05:49:07.918Z,57.40
2022-09-11T05:51:37.719Z,57.60
2022-09-11T05:54:10.591Z,57.60
2022-09-11T05:56:37.556Z,57.40
2022-09-11T05:59:05.006Z,57.30
2022-09-11T06:01:32.272Z,57.50
2022-09-11T06:03:59.184Z,57.30
2022-09-11T06:06:25.941Z,57.00
2022-09-11T06:08:53.059Z,56.90
2022-09-11T06:11:21.331Z,56.90
2022-09-11T06:14:04.951Z,56.90
2022-09-11T06:16:52.452Z,57.00
2022-09-11T06:19:19.817Z,56.50
2022-09-11T06:21:47.111Z,56.30
2022-09-11T06:24:17.736Z,56.80
2022-09-11T06:26:48.848Z,57.00
2022-09-11T06:29:16.261Z,56.80
2022-09-11T06:31:43.931Z,56.60
2022-09-11T06:34:10.652Z,56.70
2022-09-11T06:36:40.369Z,56.50
2022-09-11T06:39:10.558Z,56.50
2022-09-11T06:41:47.994Z,56.00
2022-09-11T06:44:15.321Z,56.30
2022-09-11T06:46:43.705Z,56.20
2022-09-11T06:49:11.302Z,56.10
2022-09-11T06:51:57.252Z,56.40
2022-09-11T06:54:40.362Z,56.60
2022-09-11T06:57:17.265Z,56.60
2022-09-11T07:03:19.991Z,56.60
2022-09-11T07:05:56.302Z,56.30
2022-09-11T07:08:25.098Z,56.10
2022-09-11T07:10:51.951Z,56.20
2022-09-11T07:13:19.027Z,56.10
2022-09-11T07:15:49.238Z,56.00
2022-09-11T07:18:15.965Z,55.90
2022-09-11T07:20:42.730Z,55.90
2022-09-11T07:23:09.391Z,55.60
2022-09-11T07:25:40.645Z,55.70
2022-09-11T07:28:07.325Z,55.70
2022-09-11T07:30:35.267Z,55.40
2022-09-11T07:33:01.963Z,55.50
2022-09-11T07:35:28.618Z,55.00
2022-09-11T07:37:55.242Z,54.90
2022-09-11T07:40:21.977Z,55.10
2022-09-11T07:42:48.633Z,55.00
2022-09-11T07:45:17.921Z,54.70
2022-09-11T07:47:47.519Z,54.60
2022-09-11T07:50:15.281Z,54.50
2022-09-11T07:52:42.780Z,54.90
2022-09-11T07:55:10.269Z,54.60
2022-09-11T07:57:36.899Z,54.70
2022-09-11T08:00:04.031Z,54.80
2022-09-11T08:02:30.835Z,54.60
2022-09-11T08:04:58.151Z,54.50
2022-09-11T08:07:25.498Z,54.50
2022-09-11T08:10:04.586Z,54.10
2022-09-11T08:12:36.970Z,54.00
2022-09-11T08:15:03.777Z,54.10
2022-09-11T08:17:34.413Z,54.10
2022-09-11T08:20:01.122Z,54.20
2022-09-11T08:22:28.111Z,54.20
2022-09-11T08:24:54.698Z,54.20
2022-09-11T08:27:21.302Z,53.80
2022-09-11T08:29:49.052Z,54.00
2022-09-11T08:32:15.642Z,54.10
2022-09-11T08:34:48.185Z,54.00
2022-09-11T08:37:14.769Z,53.70
2022-09-11T08:39:41.397Z,53.30
2022-09-11T08:42:14.070Z,53.20
2022-09-11T08:44:49.093Z,52.80
2022-09-11T08:47:18.984Z,52.50
2022-09-11T08:49:51.065Z,52.30
2022-09-11T08:52:17.677Z,52.20
2022-09-11T08:54:45.822Z,52.00
2022-09-11T08:57:18.159Z,52.20
2022-09-11T09:00:14.613Z,52.30
2022-09-11T09:02:55.051Z,52.20
2022-09-11T09:05:37.351Z,51.90
2022-09-11T09:08:30.054Z,51.50
2022-09-11T09:11:10.482Z,51.20
2022-09-11T09:13:58.711Z,52.20
2022-09-11T09:16:25.646Z,51.50
2022-09-11T09:19:09.103Z,51.10
2022-09-11T09:21:59.310Z,51.40
2022-09-11T09:24:26.048Z,51.10
2022-09-11T09:26:54.816Z,50.50
2022-09-11T09:29:23.531Z,50.80
2022-09-11T09:31:52.780Z,50.60
2022-09-11T09:34:20.828Z,50.70
2022-09-11T09:37:05.583Z,50.80
2022-09-11T09:39:32.222Z,51.00
2022-09-11T09:42:28.220Z,50.00
2022-09-11T09:45:19.074Z,49.50
2022-09-11T09:47:46.098Z,49.30
2022-09-11T09:50:19.659Z,49.00
2022-09-11T09:52:46.419Z,49.10
2022-09-11T09:55:18.251Z,48.50
2022-09-11T09:57:44.932Z,48.30
2022-09-11T10:00:12.113Z,48.50
2022-09-11T10:02:40.013Z,48.00
2022-09-11T10:05:16.925Z,48.40
2022-09-11T10:07:54.155Z,47.90
2022-09-11T10:10:41.158Z,48.20
2022-09-11T10:13:19.729Z,48.60
2022-09-11T10:15:48.775Z,48.20
2022-09-11T10:18:30.867Z,47.40
2022-09-11T10:21:12.786Z,47.40
2022-09-11T10:23:53.088Z,47.70
2022-09-11T10:26:30.110Z,48.10
2022-09-11T10:29:19.601Z,47.20
2022-09-11T10:31:53.265Z,47.80
2022-09-11T10:34:20.617Z,47.90
2022-09-11T10:37:00.983Z,47.70
2022-09-11T10:39:30.866Z,47.60
2022-09-11T10:42:02.142Z,46.90
2022-09-11T10:44:29.308Z,46.90
2022-09-11T10:47:25.554Z,46.60
2022-09-11T10:50:30.969Z,47.40
2022-09-11T10:53:12.431Z,47.70
2022-09-11T10:55:44.896Z,47.90
2022-09-11T10:58:14.594Z,47.80
2022-09-11T11:00:41.385Z,46.10
2022-09-11T11:03:12.520Z,45.20
2022-09-11T11:05:44.134Z,45.10
2022-09-11T11:08:25.732Z,44.00
2022-09-11T11:11:07.544Z,44.00
2022-09-11T11:13:57.372Z,43.00
2022-09-11T11:16:47.495Z,43.20
2022-09-11T11:19:53.250Z,43.00
2022-09-11T11:22:46.663Z,42.90
2022-09-11T11:25:21.587Z,42.30
2022-09-11T11:28:11.808Z,42.20
2022-09-11T11:31:07.333Z,42.30
2022-09-11T11:33:43.382Z,42.20
2022-09-11T11:36:14.415Z,42.30
2022-09-11T11:39:00.485Z,43.50
2022-09-11T11:41:35.831Z,44.30
2022-09-11T11:44:02.993Z,43.90
2022-09-11T11:46:33.513Z,41.10
2022-09-11T11:49:34.908Z,40.40
2022-09-11T11:52:06.020Z,41.50
2022-09-11T11:54:37.854Z,38.90
2022-09-11T11:57:11.529Z,38.10
2022-09-11T11:59:59.391Z,39.00
2022-09-11T12:02:35.862Z,39.60
2022-09-11T12:05:12.926Z,39.60
2022-09-11T12:07:41.157Z,38.90
2022-09-11T12:10:17.483Z,38.80
2022-09-11T12:12:45.733Z,39.30
2022-09-11T12:15:20.597Z,39.10
2022-09-11T12:17:49.506Z,39.40
2022-09-11T12:20:31.560Z,40.10
2022-09-11T12:22:58.419Z,40.50
2022-09-11T12:25:35.479Z,40.40
2022-09-11T12:28:22.333Z,40.80
2022-09-11T12:31:01.953Z,41.50
2022-09-11T12:33:40.842Z,41.20
2022-09-11T12:36:16.470Z,41.50
2022-09-11T12:38:46.264Z,41.70
2022-09-11T12:41:22.797Z,42.00
2022-09-11T12:43:49.861Z,41.90
2022-09-11T12:46:22.500Z,41.90
2022-09-11T12:49:11.248Z,42.00
2022-09-11T12:51:43.076Z,41.90
2022-09-11T12:54:22.247Z,41.50
2022-09-11T12:57:04.575Z,41.30
2022-09-11T12:59:42.600Z,40.90
2022-09-11T13:02:46.682Z,40.70
2022-09-11T13:05:37.748Z,40.70
2022-09-11T13:08:15.366Z,41.10
2022-09-11T13:10:42.473Z,41.50
2022-09-11T13:13:34.917Z,41.90
2022-09-11T13:16:20.593Z,42.30
2022-09-11T13:18:47.442Z,42.10
2022-09-11T13:21:17.163Z,41.80
2022-09-11T13:23:44.785Z,41.70
2022-09-11T13:26:21.621Z,41.40
2022-09-11T13:28:49.581Z,41.10
2022-09-11T13:31:21.434Z,40.60
2022-09-11T13:33:51.503Z,40.20
2022-09-11T13:36:20.485Z,40.30
2022-09-11T13:38:56.043Z,40.20
2022-09-11T13:41:25.794Z,40.20
2022-09-11T13:43:58.139Z,40.50
2022-09-11T13:46:26.876Z,40.50
2022-09-11T13:48:57.337Z,40.40
2022-09-11T13:51:29.692Z,40.50
2022-09-11T13:54:10.136Z,40.20
2022-09-11T13:56:41.379Z,40.20
2022-09-11T13:59:27.010Z,39.70
2022-09-11T14:01:55.460Z,39.60
2022-09-11T14:04:22.418Z,39.70
2022-09-11T14:06:49.081Z,40.30
2022-09-11T14:09:19.695Z,39.80
2022-09-11T14:11:46.326Z,40.30
2022-09-11T14:14:24.412Z,39.40
2022-09-11T14:16:53.189Z,39.90
2022-09-11T14:19:26.438Z,40.20
2022-09-11T14:21:53.173Z,40.30
2022-09-11T14:24:33.750Z,40.20
2022-09-11T14:27:01.996Z,40.60
2022-09-11T14:29:33.898Z,40.20
2022-09-11T14:32:36.900Z,39.60
2022-09-11T14:35:06.472Z,40.00
2022-09-11T14:37:35.072Z,39.50
2022-09-11T14:40:06.712Z,39.50
2022-09-11T14:42:34.693Z,39.80
2022-09-11T14:45:33.630Z,39.40
2022-09-11T14:48:00.509Z,39.70
2022-09-11T14:50:27.268Z,39.40
2022-09-11T14:52:53.852Z,39.60
2022-09-11T14:55:20.530Z,40.00
2022-09-11T14:57:48.202Z,40.40
2022-09-11T15:00:18.375Z,40.70
2022-09-11T15:02:45.714Z,41.00
2022-09-11T15:05:17.228Z,41.10
2022-09-11T15:07:46.639Z,41.00
2022-09-11T15:10:15.234Z,40.90
2022-09-11T15:12:43.676Z,41.00
2022-09-11T15:15:11.648Z,41.00
2022-09-11T15:17:38.795Z,41.10
2022-09-11T15:20:09.450Z,41.20
2022-09-11T15:22:37.272Z,41.40
2022-09-11T15:25:05.988Z,41.40
2022-09-11T15:27:32.849Z,41.60
2022-09-11T15:30:00.634Z,41.50
2022-09-11T15:32:28.330Z,41.70
2022-09-11T15:34:56.081Z,41.80
2022-09-11T15:37:24.145Z,41.70
2022-09-11T15:39:51.396Z,41.70
2022-09-11T15:42:18.753Z,41.80
2022-09-11T15:44:46.165Z,41.80
2022-09-11T15:47:14.203Z,42.20
2022-09-11T15:49:42.032Z,42.10
2022-09-11T15:52:08.937Z,42.40
2022-09-11T15:54:35.701Z,42.40
2022-09-11T15:57:07.577Z,42.20
2022-09-11T15:59:34.790Z,42.20
2022-09-11T16:02:01.950Z,42.40
2022-09-11T16:04:29.001Z,42.90
2022-09-11T16:06:55.761Z,43.20
2022-09-11T16:09:27.255Z,43.00
2022-09-11T16:11:56.410Z,43.10
2022-09-11T16:14:25.177Z,43.40
2022-09-11T16:16:52.357Z,43.60
2022-09-11T16:19:21.081Z,44.10
2022-09-11T16:21:48.381Z,43.90
2022-09-11T16:24:18.309Z,43.80
2022-09-11T16:26:45.206Z,43.70
2022-09-11T16:29:12.793Z,43.90
2022-09-11T16:31:39.612Z,44.10
2022-09-11T16:34:10.117Z,43.90
2022-09-11T16:36:39.958Z,43.80
2022-09-11T16:39:07.288Z,43.80
2022-09-11T16:41:34.343Z,43.80
2022-09-11T16:44:01.035Z,43.80
2022-09-11T16:46:28.237Z,44.00
2022-09-11T16:49:01.513Z,43.40
2022-09-11T16:51:33.366Z,43.20
2022-09-11T16:54:00.275Z,43.10
2022-09-11T16:56:28.145Z,42.90
2022-09-11T16:58:55.573Z,42.90
2022-09-11T17:01:24.063Z,43.00
2022-09-11T17:03:51.694Z,43.00
2022-09-11T17:06:22.256Z,43.20
2022-09-11T17:08:51.793Z,43.30
2022-09-11T17:11:20.624Z,43.30
2022-09-11T17:13:47.484Z,43.60
2022-09-11T17:16:25.168Z,44.30
2022-09-11T17:18:54.071Z,44.60
2022-09-11T17:21:24.251Z,45.20
2022-09-11T17:23:53.599Z,45.10
2022-09-11T17:26:20.350Z,45.40
2022-09-11T17:28:49.013Z,45.40
2022-09-11T17:31:17.589Z,45.30
2022-09-11T17:33:45.358Z,45.30
2022-09-11T17:36:13.466Z,45.80
2022-09-11T17:38:41.227Z,46.30
2022-09-11T17:41:08.404Z,46.10
2022-09-11T17:43:36.143Z,46.10
2022-09-11T17:46:10.379Z,46.40
2022-09-11T17:48:38.590Z,46.50
2022-09-11T17:51:12.578Z,47.00
2022-09-11T17:53:41.384Z,47.00
2022-09-11T17:56:12.129Z,46.80
2022-09-11T17:58:43.685Z,47.00
2022-09-11T18:01:16.539Z,46.70
2022-09-11T18:03:45.163Z,46.90
2022-09-11T18:06:38.091Z,46.90
2022-09-11T18:09:14.178Z,47.20
2022-09-11T18:11:43.138Z,47.70
2022-09-11T18:14:13.713Z,47.50
2022-09-11T18:16:40.825Z,47.60
2022-09-11T18:19:07.490Z,47.80
2022-09-11T18:21:38.437Z,47.80
2022-09-11T18:24:19.801Z,47.70
2022-09-11T18:26:56.065Z,47.70
2022-09-11T18:29:30.178Z,48.00
2022-09-11T18:32:00.281Z,47.80
2022-09-11T18:34:28.445Z,47.10
2022-09-11T18:36:59.900Z,47.30
2022-09-11T18:39:26.920Z,47.30
2022-09-11T18:41:55.044Z,47.60
2022-09-11T18:44:23.280Z,47.60
2022-09-11T18:46:52.962Z,47.90
2022-09-11T18:49:21.743Z,48.00
2022-09-11T18:51:48.403Z,47.90
2022-09-11T18:54:25.458Z,47.90
2022-09-11T18:56:52.237Z,48.30
2022-09-11T18:59:23.876Z,49.40
2022-09-11T19:01:50.649Z,49.00
2022-09-11T19:04:18.098Z,48.90
2022-09-11T19:06:45.714Z,49.00
2022-09-11T19:09:14.970Z,49.20
2022-09-11T19:11:41.993Z,49.20
2022-09-11T19:14:10.135Z,49.30
2022-09-11T19:16:38.884Z,49.60
2022-09-11T19:19:07.617Z,49.40
2022-09-11T19:21:34.561Z,49.60
2022-09-11T19:24:04.765Z,49.30
2022-09-11T19:26:39.030Z,49.40
2022-09-11T19:29:07.754Z,49.20
2022-09-11T19:31:34.780Z,49.10
2022-09-11T19:34:01.579Z,49.00
2022-09-11T19:36:30.011Z,49.10
2022-09-11T19:39:03.403Z,48.90
2022-09-11T19:41:34.805Z,48.70
2022-09-11T19:44:02.910Z,49.70
2022-09-11T19:46:30.611Z,49.30
2022-09-11T19:49:00.331Z,49.60
2022-09-11T19:51:29.141Z,49.80
2022-09-11T19:54:02.643Z,49.60
2022-09-11T19:56:29.544Z,49.80
2022-09-11T19:58:56.641Z,49.70
2022-09-11T20:01:25.945Z,49.70
2022-09-11T20:03:53.602Z,49.70
2022-09-11T20:06:21.979Z,50.30
2022-09-11T20:08:48.895Z,49.50
2022-09-11T20:11:18.541Z,49.50
2022-09-11T20:13:45.485Z,49.60
2022-09-11T20:16:20.073Z,49.50
2022-09-11T20:18:47.528Z,49.60
2022-09-11T20:21:17.506Z,49.60
2022-09-11T20:23:45.682Z,49.70
2022-09-11T20:26:17.623Z,49.50
2022-09-11T20:28:45.243Z,49.70
2022-09-11T20:31:13.705Z,49.60
2022-09-11T20:33:40.739Z,49.50
2022-09-11T20:36:07.863Z,49.50
2022-09-11T20:38:35.620Z,49.60
2022-09-11T20:41:08.270Z,49.70
2022-09-11T20:43:35.187Z,50.30
2022-09-11T20:46:03.256Z,49.50
2022-09-11T20:48:30.110Z,49.90
2022-09-11T20:51:05.856Z,49.80
2022-09-11T20:53:32.711Z,50.00
2022-09-11T20:56:04.325Z,49.70
2022-09-11T20:58:31.334Z,49.90
2022-09-11T21:00:58.105Z,49.70
2022-09-11T21:03:25.328Z,49.70
2022-09-11T21:05:51.918Z,49.70
2022-09-11T21:08:19.549Z,49.70
2022-09-11T21:10:46.203Z,49.70
2022-09-11T21:13:15.495Z,49.90
2022-09-11T21:15:44.631Z,50.10
2022-09-11T21:18:12.667Z,50.00
2022-09-11T21:20:40.684Z,50.00
2022-09-11T21:23:07.733Z,50.10
2022-09-11T21:25:41.383Z,50.10
2022-09-11T21:28:09.126Z,50.00
2022-09-11T21:30:38.012Z,49.80
2022-09-11T21:33:04.685Z,50.00
2022-09-11T21:35:34.119Z,50.10
2022-09-11T21:38:02.042Z,49.90
2022-09-11T21:40:30.236Z,50.10
2022-09-11T21:42:58.955Z,49.90
2022-09-11T21:45:25.646Z,50.00
2022-09-11T21:47:55.458Z,49.80
2022-09-11T21:50:23.125Z,49.90
2022-09-11T21:52:49.942Z,49.80
2022-09-11T21:55:18.748Z,50.00
2022-09-11T21:57:45.573Z,50.10
2022-09-11T22:00:12.991Z,50.00
2022-09-11T22:02:39.905Z,50.10
2022-09-11T22:05:08.304Z,50.10
2022-09-11T22:07:35.124Z,50.30
2022-09-11T22:10:02.182Z,50.70
2022-09-11T22:12:28.913Z,50.80
2022-09-11T22:14:55.585Z,51.00
2022-09-11T22:17:22.640Z,51.20
2022-09-11T22:19:49.722Z,51.20
2022-09-11T22:22:16.503Z,51.10
2022-09-11T22:24:44.139Z,51.40
2022-09-11T22:27:10.893Z,51.40
2022-09-11T22:29:39.133Z,51.50
2022-09-11T22:32:06.550Z,51.30
2022-09-11T22:34:37.036Z,51.50
2022-09-11T22:37:03.820Z,51.60
2022-09-11T22:39:33.018Z,51.70
2022-09-11T22:41:59.693Z,51.80
2022-09-11T22:44:28.193Z,51.70
2022-09-11T22:46:54.919Z,51.80
2022-09-11T22:49:21.598Z,51.70
2022-09-11T22:51:48.313Z,51.80
2022-09-11T22:54:15.627Z,51.80
2022-09-11T22:56:42.547Z,51.70
2022-09-11T22:59:13.249Z,51.80
2022-09-11T23:01:40.283Z,52.10
2022-09-11T23:04:06.987Z,52.10
2022-09-11T23:06:53.101Z,52.80
2022-09-11T23:09:19.708Z,52.50
2022-09-11T23:11:46.396Z,52.30
2022-09-11T23:14:14.529Z,52.40
2022-09-11T23:16:42.473Z,52.40
2022-09-11T23:19:11.723Z,52.40
2022-09-11T23:21:40.534Z,52.60
2022-09-11T23:24:10.426Z,52.50
2022-09-11T23:26:37.115Z,52.60
2022-09-11T23:29:04.127Z,52.60
2022-09-11T23:31:32.552Z,52.70
2022-09-11T23:34:01.494Z,52.50
2022-09-11T23:36:29.051Z,52.50
2022-09-11T23:38:55.697Z,52.50
2022-09-11T23:41:22.712Z,52.40
2022-09-11T23:43:49.498Z,52.20
2022-09-11T23:46:17.408Z,52.30
2022-09-11T23:48:44.277Z,52.50
2022-09-11T23:51:11.328Z,52.60
2022-09-11T23:53:43.583Z,52.70
2022-09-11T23:56:10.942Z,52.70
2022-09-11T23:58:40.198Z,52.90
